Startpagina
METAR-TAF:

METAR-TAF

Vliegvelden :

Wattisham, Engeland

breedte: 52-07N, lengte: 000-58E, hoogte: 87 m

Actueel weer

Dit bericht is 1 uur en het 8 minuten geleden gemaakt, om 19:50 UTC
Wind 8 kt uit het westnoordwesten
Temperatuur 5°C
Vochtigheid 65%
Druk 1022 hPa
Zicht 10 km of meer

METAR: EGUW 231950Z AUTO 30008KT 9999 FEW220/// 05/M01 Q1022

Tijdstip: 20:58 (20:58 UTC)


TAF: ontbreekt

Waarnemingen en weersverwachtingen van meer dan 4000 vliegvelden (METAR en TAF).

De beschikbare stations zijn de gele en rode punten op de kaart.

Ga met uw muis naar het station om de naam te zien.

Klik dan om waarnemingen en weersverwachtingen te zien.

kaart wijzigen: klik op de groene knoppen met een zwart kruis om in te zoomen, op de groene knop met een streepje om uit te zoomen of op de groene pijlen voor aangrenzende kaarten.


METAR-TAF: